Terminal Aerodrome Forecast
Issued by NWS Flagstaff, AZ

Home | Current Version | Previous Version | Text Only | Print | Product List | Glossary On
Versions: 1 2 3 4 5 6 7 8 9 10 11 12 13
000
FTUS45 KFGZ 302335
TAFFLG
TAF
KFLG 302335Z 3100/3124 20010KT P6SM BKN100
     FM310200 VRB05KT P6SM FEW090
     FM311800 VRB05KT P6SM SCT090 PROB30 3119/3124 VRB15G30KT -TSRA
      BKN090CB=

USA.gov is the U.S. government's official web portal to all federal, state and local government web resources and services.